Terminal Aerodrome Forecast
Issued by NWS

Home | Current Version | Previous Version | Text Only | Print | Product List | Glossary On
Versions: 1 2 3 4 5 6 7 8 9 10 11 12 13 14 15 16 17 18 19 20 21 22 23 24 25 26 27 28 29 30
512
FTUS43 KDVN 210520
TAFBRL
TAF
KBRL 210520Z 2106/2206 16007KT P6SM BKN050
     FM210800 18007KT 5SM BR VCTS BKN040CB
      TEMPO 2108/2110 VRB15G25KT 2SM -TSRA BR BKN025CB
     FM211100 16003KT 4SM BR BKN080
     FM211400 18011KT P6SM BKN040
     FM211700 18013G20KT P6SM SCT060
     FM220000 17007KT P6SM SKC=

USA.gov is the U.S. government's official web portal to all federal, state and local government web resources and services.